createdAt,value
2022-10-02T00:00:48.350Z,89.50
2022-10-02T00:01:48.488Z,89.50
2022-10-02T00:02:48.527Z,89.40
2022-10-02T00:03:48.616Z,89.30
2022-10-02T00:04:48.666Z,89.30
2022-10-02T00:05:48.727Z,89.30
2022-10-02T00:06:48.821Z,89.09
2022-10-02T00:07:48.893Z,89.30
2022-10-02T00:08:48.986Z,89.20
2022-10-02T00:09:49.051Z,89.20
2022-10-02T00:10:49.141Z,89.20
2022-10-02T00:11:49.209Z,89.20
2022-10-02T00:12:49.291Z,89.20
2022-10-02T00:13:49.350Z,89.20
2022-10-02T00:14:49.440Z,89.20
2022-10-02T00:15:49.504Z,89.15
2022-10-02T00:16:49.728Z,89.26
2022-10-02T00:17:49.703Z,89.15
2022-10-02T00:18:49.755Z,89.05
2022-10-02T00:19:49.812Z,89.05
2022-10-02T00:20:49.899Z,89.05
2022-10-02T00:21:49.969Z,89.05
2022-10-02T00:22:50.071Z,89.05
2022-10-02T00:23:50.133Z,88.95
2022-10-02T00:24:50.208Z,89.05
2022-10-02T00:25:50.264Z,89.05
2022-10-02T00:26:50.341Z,89.15
2022-10-02T00:27:50.462Z,89.15
2022-10-02T00:28:50.507Z,89.15
2022-10-02T00:29:50.604Z,89.26
2022-10-02T00:30:50.663Z,89.15
2022-10-02T00:31:50.814Z,89.15
2022-10-02T00:32:50.831Z,89.15
2022-10-02T00:33:50.917Z,89.15
2022-10-02T00:34:50.980Z,89.26
2022-10-02T00:35:51.069Z,89.36
2022-10-02T00:36:51.125Z,89.46
2022-10-02T00:37:51.225Z,89.56
2022-10-02T00:38:51.278Z,89.66
2022-10-02T00:39:51.383Z,89.56
2022-10-02T00:40:51.438Z,89.56
2022-10-02T00:41:51.520Z,89.46
2022-10-02T00:42:51.590Z,89.46
2022-10-02T00:43:51.679Z,89.46
2022-10-02T00:44:51.760Z,89.26
2022-10-02T00:45:51.919Z,89.26
2022-10-02T00:46:51.907Z,89.15
2022-10-02T00:47:52.006Z,89.05
2022-10-02T00:48:52.080Z,89.15
2022-10-02T00:49:52.166Z,89.15
2022-10-02T00:50:52.222Z,89.15
2022-10-02T00:51:52.307Z,89.15
2022-10-02T00:52:52.375Z,89.05
2022-10-02T00:53:52.440Z,89.15
2022-10-02T00:54:52.502Z,89.46
2022-10-02T00:55:52.567Z,89.46
2022-10-02T00:56:52.665Z,89.36
2022-10-02T00:57:52.736Z,89.36
2022-10-02T00:58:52.781Z,89.46
2022-10-02T00:59:52.865Z,89.66
2022-10-02T01:00:52.948Z,89.66
2022-10-02T01:01:53.064Z,89.87
2022-10-02T01:02:53.092Z,89.87
2022-10-02T01:03:53.156Z,89.87
2022-10-02T01:04:53.213Z,89.97
2022-10-02T01:05:53.305Z,89.97
2022-10-02T01:06:53.358Z,90.17
2022-10-02T01:07:53.457Z,90.27
2022-10-02T01:08:53.498Z,90.27
2022-10-02T01:09:53.579Z,90.27
2022-10-02T01:10:53.664Z,90.48
2022-10-02T01:11:53.743Z,90.78
2022-10-02T01:12:53.814Z,90.78
2022-10-02T01:13:53.905Z,90.88
2022-10-02T01:14:53.959Z,90.88
2022-10-02T01:15:54.044Z,90.99
2022-10-02T01:16:54.161Z,90.99
2022-10-02T01:17:54.295Z,90.88
2022-10-02T01:18:54.268Z,90.99
2022-10-02T01:19:54.364Z,91.19
2022-10-02T01:20:54.421Z,91.19
2022-10-02T01:21:54.501Z,91.09
2022-10-02T01:22:54.604Z,90.99
2022-10-02T01:23:54.642Z,91.09
2022-10-02T01:24:54.703Z,91.19
2022-10-02T01:25:54.807Z,91.09
2022-10-02T01:26:54.860Z,91.19
2022-10-02T01:27:55.165Z,91.19
2022-10-02T01:28:55.047Z,91.09
2022-10-02T01:29:55.130Z,91.09
2022-10-02T01:30:55.186Z,91.19
2022-10-02T01:31:55.349Z,91.19
2022-10-02T01:32:55.392Z,91.19
2022-10-02T01:33:55.452Z,91.09
2022-10-02T01:34:55.505Z,91.09
2022-10-02T01:35:55.591Z,91.19
2022-10-02T01:36:55.641Z,91.09
2022-10-02T01:37:55.834Z,91.09
2022-10-02T01:38:55.805Z,91.09
2022-10-02T01:39:55.890Z,90.99
2022-10-02T01:40:55.962Z,90.99
2022-10-02T01:41:56.044Z,90.99
2022-10-02T01:42:56.117Z,90.88
2022-10-02T01:43:56.196Z,90.88
2022-10-02T01:44:56.272Z,90.78
2022-10-02T01:45:56.378Z,90.88
2022-10-02T01:46:56.414Z,90.88
2022-10-02T01:47:56.519Z,90.78
2022-10-02T01:48:56.572Z,90.68
2022-10-02T01:49:56.654Z,90.68
2022-10-02T01:50:56.717Z,90.88
2022-10-02T01:51:56.821Z,90.88
2022-10-02T01:52:56.906Z,90.88
2022-10-02T01:53:56.971Z,90.88
2022-10-02T01:54:57.050Z,90.78
2022-10-02T01:55:57.146Z,90.78
2022-10-02T01:56:57.194Z,90.88
2022-10-02T01:57:57.377Z,90.99
2022-10-02T01:58:57.353Z,91.09
2022-10-02T01:59:57.453Z,91.09
2022-10-02T02:00:57.570Z,91.09
2022-10-02T02:01:57.695Z,91.09
2022-10-02T02:02:57.702Z,91.09
2022-10-02T02:03:57.770Z,91.09
2022-10-02T02:04:57.832Z,91.09
2022-10-02T02:05:57.917Z,91.09
2022-10-02T02:06:57.972Z,91.09
2022-10-02T02:07:58.071Z,91.09
2022-10-02T02:09:01.727Z,91.29
2022-10-02T02:09:58.184Z,91.29
2022-10-02T02:10:58.242Z,91.19
2022-10-02T02:11:58.326Z,91.09
2022-10-02T02:12:58.407Z,91.19
2022-10-02T02:13:58.454Z,91.09
2022-10-02T02:14:58.511Z,91.09
2022-10-02T02:15:58.661Z,91.19
2022-10-02T02:16:58.757Z,91.19
2022-10-02T02:17:58.779Z,91.19
2022-10-02T02:18:58.834Z,91.19
2022-10-02T02:19:58.941Z,91.09
2022-10-02T02:20:59.001Z,91.19
2022-10-02T02:21:59.081Z,91.19
2022-10-02T02:22:59.167Z,91.29
2022-10-02T02:23:59.232Z,91.29
2022-10-02T02:24:59.295Z,91.29
2022-10-02T02:25:59.390Z,91.19
2022-10-02T02:26:59.448Z,91.19
2022-10-02T02:27:59.624Z,91.19
2022-10-02T02:28:59.623Z,91.09
2022-10-02T02:29:59.706Z,90.99
2022-10-02T02:30:59.768Z,90.88
2022-10-02T02:31:59.897Z,90.88
2022-10-02T02:32:59.951Z,90.78
2022-10-02T02:34:00.034Z,90.78
2022-10-02T02:35:00.099Z,90.78
2022-10-02T02:36:00.198Z,90.78
2022-10-02T02:37:00.250Z,90.68
2022-10-02T02:38:00.378Z,90.68
2022-10-02T02:39:00.432Z,90.58
2022-10-02T02:40:00.512Z,90.58
2022-10-02T02:41:00.573Z,90.68
2022-10-02T02:42:00.656Z,90.68
2022-10-02T02:43:00.725Z,90.58
2022-10-02T02:44:00.797Z,90.68
2022-10-02T02:45:00.858Z,90.58
2022-10-02T02:46:00.965Z,90.58
2022-10-02T02:47:01.002Z,90.68
2022-10-02T02:48:01.108Z,90.58
2022-10-02T02:49:01.158Z,90.58
2022-10-02T02:50:01.260Z,90.58
2022-10-02T02:51:01.319Z,90.58
2022-10-02T02:52:01.403Z,90.58
2022-10-02T02:53:01.469Z,90.58
2022-10-02T02:54:01.539Z,90.58
2022-10-02T02:55:01.590Z,90.68
2022-10-02T02:56:01.674Z,90.68
2022-10-02T02:57:01.725Z,90.68
2022-10-02T02:58:01.909Z,90.68
2022-10-02T02:59:01.874Z,90.78
2022-10-02T03:00:01.931Z,90.68
2022-10-02T03:01:02.096Z,90.68
2022-10-02T03:02:02.135Z,90.58
2022-10-02T03:03:02.172Z,90.53
2022-10-02T03:04:02.222Z,90.48
2022-10-02T03:05:02.302Z,90.58
2022-10-02T03:06:02.357Z,90.44
2022-10-02T03:07:02.435Z,90.33
2022-10-02T03:08:02.617Z,90.33
2022-10-02T03:09:02.564Z,90.23
2022-10-02T03:10:02.620Z,90.33
2022-10-02T03:11:02.724Z,90.33
2022-10-02T03:12:02.797Z,90.23
2022-10-02T03:13:02.891Z,90.23
2022-10-02T03:14:02.942Z,90.23
2022-10-02T03:15:03.020Z,90.23
2022-10-02T03:16:03.145Z,90.33
2022-10-02T03:17:03.165Z,90.13
2022-10-02T03:18:03.245Z,89.92
2022-10-02T03:19:03.321Z,89.83
2022-10-02T03:20:03.376Z,89.72
2022-10-02T03:21:03.460Z,89.72
2022-10-02T03:22:03.508Z,89.62
2022-10-02T03:23:03.619Z,89.62
2022-10-02T03:24:03.662Z,89.72
2022-10-02T03:25:03.744Z,89.72
2022-10-02T03:26:03.803Z,89.72
2022-10-02T03:27:03.884Z,89.72
2022-10-02T03:28:04.028Z,89.62
2022-10-02T03:29:04.045Z,89.62
2022-10-02T03:30:04.083Z,89.62
2022-10-02T03:31:04.243Z,89.62
2022-10-02T03:32:04.243Z,89.62
2022-10-02T03:33:04.346Z,89.62
2022-10-02T03:34:04.380Z,89.62
2022-10-02T03:35:04.485Z,89.72
2022-10-02T03:36:04.541Z,89.62
2022-10-02T03:37:04.622Z,89.62
2022-10-02T03:38:04.707Z,89.62
2022-10-02T03:40:04.831Z,89.52
2022-10-02T03:41:04.895Z,89.62
2022-10-02T03:42:04.952Z,89.72
2022-10-02T03:43:05.056Z,89.78
2022-10-02T03:44:05.090Z,89.68
2022-10-02T03:45:05.169Z,89.78
2022-10-02T03:46:05.249Z,89.88
2022-10-02T03:47:05.326Z,89.88
2022-10-02T03:48:05.417Z,89.88
2022-10-02T03:49:05.479Z,89.98
2022-10-02T03:50:05.532Z,90.09
2022-10-02T03:51:05.632Z,90.09
2022-10-02T03:52:05.687Z,90.23
2022-10-02T03:53:05.783Z,90.33
2022-10-02T03:54:05.833Z,90.33
2022-10-02T03:55:05.918Z,90.44
2022-10-02T03:56:05.968Z,90.59
2022-10-02T03:57:06.048Z,90.53
2022-10-02T03:58:06.122Z,90.59
2022-10-02T03:59:06.202Z,90.59
2022-10-02T04:00:06.259Z,90.80
2022-10-02T04:01:06.340Z,91.00
2022-10-02T04:02:06.461Z,91.14
2022-10-02T04:03:06.485Z,91.14
2022-10-02T04:04:06.538Z,91.14
2022-10-02T04:05:06.638Z,91.55
2022-10-02T04:06:06.692Z,91.75
2022-10-02T04:07:06.774Z,91.65
2022-10-02T04:08:06.843Z,91.65
2022-10-02T04:09:06.923Z,91.75
2022-10-02T04:10:06.985Z,91.96
2022-10-02T04:11:07.061Z,92.06
2022-10-02T04:12:07.117Z,92.16
2022-10-02T04:13:07.207Z,92.26
2022-10-02T04:14:07.256Z,92.47
2022-10-02T04:15:07.333Z,92.36
2022-10-02T04:16:07.450Z,92.57
2022-10-02T04:17:07.480Z,92.57
2022-10-02T04:18:07.551Z,92.77
2022-10-02T04:19:07.613Z,93.07
2022-10-02T04:20:07.675Z,93.07
2022-10-02T04:21:07.754Z,93.28
2022-10-02T04:22:07.814Z,93.18
2022-10-02T04:23:07.934Z,93.18
2022-10-02T04:24:07.986Z,93.07
2022-10-02T04:25:08.085Z,93.07
2022-10-02T04:26:08.138Z,93.07
2022-10-02T04:27:08.221Z,93.28
2022-10-02T04:28:08.372Z,93.28
2022-10-02T04:29:08.367Z,93.18
2022-10-02T04:30:08.438Z,93.18
2022-10-02T04:31:08.589Z,93.38
2022-10-02T04:32:08.595Z,93.38
2022-10-02T04:33:08.695Z,93.28
2022-10-02T04:34:08.747Z,93.18
2022-10-02T04:35:08.826Z,93.18
2022-10-02T04:36:08.955Z,93.18
2022-10-02T04:37:08.959Z,93.28
2022-10-02T04:38:09.031Z,93.28
2022-10-02T04:39:09.093Z,93.28
2022-10-02T04:40:09.148Z,93.28
2022-10-02T04:41:09.228Z,93.28
2022-10-02T04:42:09.282Z,93.28
2022-10-02T04:43:09.384Z,93.28
2022-10-02T04:44:09.436Z,93.18
2022-10-02T04:45:09.536Z,93.18
2022-10-02T04:46:09.635Z,93.28
2022-10-02T04:47:09.691Z,93.28
2022-10-02T04:48:09.760Z,93.28
2022-10-02T04:49:09.842Z,93.07
2022-10-02T04:50:09.893Z,93.07
2022-10-02T04:51:09.974Z,93.18
2022-10-02T04:52:10.030Z,92.97
2022-10-02T04:53:10.132Z,93.18
2022-10-02T04:54:10.181Z,93.07
2022-10-02T04:55:10.262Z,93.18
2022-10-02T04:56:10.315Z,93.28
2022-10-02T04:57:10.400Z,93.28
2022-10-02T04:58:10.473Z,93.38
2022-10-02T04:59:10.553Z,93.38
2022-10-02T05:00:10.610Z,93.38
2022-10-02T05:01:10.824Z,93.48
2022-10-02T05:02:10.807Z,93.48
2022-10-02T05:03:10.885Z,93.59
2022-10-02T05:04:10.934Z,93.68
2022-10-02T05:05:11.014Z,93.68
2022-10-02T05:06:11.067Z,93.68
2022-10-02T05:07:11.170Z,93.79
2022-10-02T05:08:11.245Z,93.89
2022-10-02T05:09:11.321Z,93.89
2022-10-02T05:10:11.385Z,94.09
2022-10-02T05:11:11.455Z,94.40
2022-10-02T05:12:11.510Z,94.40
2022-10-02T05:13:11.673Z,94.60
2022-10-02T05:14:11.645Z,94.60
2022-10-02T05:15:11.723Z,94.60
2022-10-02T05:16:11.877Z,94.60
2022-10-02T05:17:11.870Z,94.70
2022-10-02T05:18:17.120Z,94.80
2022-10-02T05:19:12.028Z,94.80
2022-10-02T05:20:12.086Z,94.80
2022-10-02T05:21:12.166Z,94.80
2022-10-02T05:22:12.217Z,94.80
2022-10-02T05:23:12.314Z,94.80
2022-10-02T05:24:12.365Z,94.80
2022-10-02T05:25:12.453Z,94.80
2022-10-02T05:26:14.446Z,94.80
2022-10-02T05:27:12.579Z,94.90
2022-10-02T05:28:12.712Z,94.80
2022-10-02T05:29:12.724Z,94.90
2022-10-02T05:30:12.786Z,94.90
2022-10-02T05:31:12.877Z,95.01
2022-10-02T05:32:12.952Z,95.01
2022-10-02T05:33:13.061Z,94.90
2022-10-02T05:34:13.112Z,94.90
2022-10-02T05:35:13.190Z,94.90
2022-10-02T05:36:13.241Z,95.10
2022-10-02T05:37:13.315Z,95.01
2022-10-02T05:38:13.388Z,95.10
2022-10-02T05:39:13.469Z,95.10
2022-10-02T05:40:13.523Z,95.10
2022-10-02T05:41:13.602Z,95.21
2022-10-02T05:42:13.655Z,95.10
2022-10-02T05:43:13.764Z,95.10
2022-10-02T05:44:13.810Z,95.21
2022-10-02T05:45:13.911Z,95.21
2022-10-02T05:46:13.982Z,95.10
2022-10-02T05:47:14.056Z,95.10
2022-10-02T05:48:14.130Z,95.10
2022-10-02T05:49:14.210Z,95.10
2022-10-02T05:50:14.263Z,95.10
2022-10-02T05:51:14.346Z,95.10
2022-10-02T05:52:14.394Z,95.10
2022-10-02T05:53:14.503Z,95.10
2022-10-02T05:54:14.530Z,95.01
2022-10-02T05:55:14.616Z,95.21
2022-10-02T05:56:14.662Z,95.15
2022-10-02T05:57:14.762Z,95.10
2022-10-02T05:58:14.848Z,95.10
2022-10-02T05:59:14.892Z,95.15
2022-10-02T06:00:14.942Z,95.10
2022-10-02T06:01:15.089Z,95.01
2022-10-02T06:02:15.135Z,95.15
2022-10-02T06:03:15.166Z,95.15
2022-10-02T06:04:15.232Z,95.10
2022-10-02T06:05:15.313Z,95.21
2022-10-02T06:06:15.384Z,95.21
2022-10-02T06:07:15.462Z,95.21
2022-10-02T06:08:15.647Z,95.21
2022-10-02T06:09:19.782Z,95.21
2022-10-02T06:10:15.660Z,95.31
2022-10-02T06:11:15.739Z,95.41
2022-10-02T06:12:15.793Z,95.51
2022-10-02T06:13:15.893Z,95.51
2022-10-02T06:14:15.939Z,95.51
2022-10-02T06:15:16.020Z,95.51
2022-10-02T06:16:16.138Z,95.51
2022-10-02T06:17:16.172Z,95.51
2022-10-02T06:18:16.254Z,95.62
2022-10-02T06:19:16.309Z,95.62
2022-10-02T06:20:16.363Z,95.62
2022-10-02T06:21:16.441Z,95.62
2022-10-02T06:22:16.494Z,95.62
2022-10-02T06:23:16.646Z,95.62
2022-10-02T06:24:16.660Z,95.62
2022-10-02T06:25:16.742Z,95.72
2022-10-02T06:26:16.808Z,95.72
2022-10-02T06:27:16.894Z,95.62
2022-10-02T06:28:17.017Z,95.51
2022-10-02T06:29:19.839Z,95.62
2022-10-02T06:30:17.110Z,95.62
2022-10-02T06:31:17.218Z,95.51
2022-10-02T06:32:17.278Z,95.51
2022-10-02T06:33:17.368Z,95.62
2022-10-02T06:34:17.444Z,95.51
2022-10-02T06:35:17.525Z,95.51
2022-10-02T06:36:17.611Z,95.51
2022-10-02T06:37:17.691Z,95.51
2022-10-02T06:38:17.822Z,95.51
2022-10-02T06:39:17.877Z,95.62
2022-10-02T06:40:17.970Z,95.62
2022-10-02T06:41:18.044Z,95.51
2022-10-02T06:42:18.135Z,95.62
2022-10-02T06:43:18.391Z,95.62
2022-10-02T06:44:18.275Z,95.62
2022-10-02T06:45:18.370Z,95.72
2022-10-02T06:46:18.457Z,95.72
2022-10-02T06:47:18.540Z,95.72
2022-10-02T06:48:18.624Z,95.62
2022-10-02T06:49:18.667Z,95.57
2022-10-02T06:50:18.754Z,95.57
2022-10-02T06:51:18.838Z,95.57
2022-10-02T06:52:18.928Z,95.57
2022-10-02T06:53:19.044Z,95.57
2022-10-02T06:54:19.095Z,95.57
2022-10-02T06:55:19.196Z,95.57
2022-10-02T06:56:19.245Z,95.57
2022-10-02T06:57:19.342Z,95.47
2022-10-02T06:58:19.432Z,95.47
2022-10-02T06:59:19.501Z,95.37
2022-10-02T07:00:19.593Z,95.47
2022-10-02T07:01:19.746Z,95.47
2022-10-02T07:02:19.782Z,95.47
2022-10-02T07:03:19.856Z,95.47
2022-10-02T07:04:19.908Z,95.37
2022-10-02T07:05:19.987Z,95.47
2022-10-02T07:06:20.061Z,95.57
2022-10-02T07:07:20.139Z,95.57
2022-10-02T07:08:20.248Z,95.47
2022-10-02T07:09:20.316Z,95.37
2022-10-02T07:10:20.364Z,95.37
2022-10-02T07:11:20.458Z,95.47
2022-10-02T07:12:20.550Z,95.47
2022-10-02T07:13:20.652Z,95.47
2022-10-02T07:14:20.710Z,95.37
2022-10-02T07:15:20.802Z,95.37
2022-10-02T07:16:20.921Z,95.42
2022-10-02T07:17:22.396Z,95.42
2022-10-02T07:18:21.091Z,95.42
2022-10-02T07:19:21.135Z,95.42
2022-10-02T07:20:21.247Z,95.22
2022-10-02T07:21:21.337Z,95.22
2022-10-02T07:22:43.323Z,95.12
2022-10-02T07:23:21.522Z,95.22
2022-10-02T07:24:21.585Z,95.22
2022-10-02T07:25:21.638Z,95.32
2022-10-02T07:26:21.722Z,95.22
2022-10-02T07:27:21.771Z,95.22
2022-10-02T07:28:22.045Z,95.22
2022-10-02T07:29:21.931Z,95.22
2022-10-02T07:30:22.034Z,95.18
2022-10-02T07:31:22.161Z,95.07
2022-10-02T07:32:22.147Z,95.07
2022-10-02T07:33:25.333Z,95.07
2022-10-02T07:34:22.337Z,95.07
2022-10-02T07:35:22.388Z,95.07
2022-10-02T07:36:22.478Z,95.07
2022-10-02T07:37:22.524Z,95.07
2022-10-02T07:38:22.629Z,95.18
2022-10-02T07:39:22.680Z,95.18
2022-10-02T07:40:22.764Z,95.18
2022-10-02T07:41:22.813Z,95.07
2022-10-02T07:42:22.898Z,95.03
2022-10-02T07:43:23.049Z,94.83
2022-10-02T07:44:23.025Z,94.62
2022-10-02T07:45:23.152Z,94.53
2022-10-02T07:46:23.208Z,94.53
2022-10-02T07:47:23.298Z,94.53
2022-10-02T07:48:23.457Z,94.53
2022-10-02T07:49:23.464Z,94.48
2022-10-02T07:50:23.545Z,94.48
2022-10-02T07:51:23.609Z,94.38
2022-10-02T07:52:23.690Z,94.27
2022-10-02T07:53:23.804Z,94.38
2022-10-02T07:54:23.881Z,94.38
2022-10-02T07:55:23.936Z,94.07
2022-10-02T07:56:24.018Z,94.07
2022-10-02T07:57:24.067Z,93.97
2022-10-02T07:58:24.182Z,93.97
2022-10-02T07:59:24.224Z,93.91
2022-10-02T08:00:24.306Z,93.87
2022-10-02T08:01:24.362Z,93.91
2022-10-02T08:02:24.482Z,93.91
2022-10-02T08:03:24.577Z,93.91
2022-10-02T08:04:24.603Z,94.02
2022-10-02T08:05:24.693Z,94.02
2022-10-02T08:06:24.783Z,93.91
2022-10-02T08:07:24.840Z,93.81
2022-10-02T08:08:25.005Z,93.81
2022-10-02T08:09:25.008Z,93.81
2022-10-02T08:10:25.089Z,93.81
2022-10-02T08:11:25.167Z,93.81
2022-10-02T08:12:25.254Z,93.77
2022-10-02T08:13:25.325Z,93.87
2022-10-02T08:14:25.402Z,93.87
2022-10-02T08:15:25.453Z,93.87
2022-10-02T08:16:25.583Z,93.87
2022-10-02T08:17:25.596Z,93.87
2022-10-02T08:18:40.301Z,93.77
2022-10-02T08:19:25.753Z,93.77
2022-10-02T08:20:29.244Z,93.83
2022-10-02T08:21:25.906Z,93.83
2022-10-02T08:22:25.986Z,93.52
2022-10-02T08:23:26.103Z,93.52
2022-10-02T08:24:26.179Z,93.52
2022-10-02T08:25:26.230Z,93.42
2022-10-02T08:26:26.308Z,93.32
2022-10-02T08:27:26.399Z,93.42
2022-10-02T08:28:26.531Z,93.42
2022-10-02T08:29:26.549Z,93.42
2022-10-02T08:30:26.624Z,93.42
2022-10-02T08:31:26.766Z,93.32
2022-10-02T08:32:28.459Z,93.32
2022-10-02T08:33:26.907Z,93.32
2022-10-02T08:34:26.977Z,93.22
2022-10-02T08:35:27.067Z,93.22
2022-10-02T08:36:27.150Z,93.12
2022-10-02T08:37:27.220Z,93.12
2022-10-02T08:38:27.329Z,93.22
2022-10-02T08:39:27.355Z,93.12
2022-10-02T08:40:27.458Z,93.12
2022-10-02T08:41:27.509Z,93.02
2022-10-02T08:42:27.589Z,93.02
2022-10-02T08:43:27.855Z,92.91
2022-10-02T08:44:27.771Z,92.82
2022-10-02T08:45:27.895Z,92.61
2022-10-02T08:46:27.958Z,92.31
2022-10-02T08:47:27.962Z,91.90
2022-10-02T08:48:28.098Z,91.54
2022-10-02T08:49:28.105Z,90.73
2022-10-02T08:50:28.185Z,89.92
2022-10-02T08:51:28.275Z,90.02
2022-10-02T08:52:28.355Z,89.72
2022-10-02T08:53:28.419Z,89.31
2022-10-02T08:54:28.500Z,89.31
2022-10-02T08:55:28.576Z,88.90
2022-10-02T08:56:28.657Z,88.60
2022-10-02T08:57:28.726Z,88.40
2022-10-02T08:58:28.863Z,88.70
2022-10-02T08:59:28.872Z,88.80
2022-10-02T09:00:28.955Z,88.60
2022-10-02T09:01:29.014Z,88.70
2022-10-02T09:02:29.185Z,88.70
2022-10-02T09:03:29.180Z,88.60
2022-10-02T09:04:29.248Z,87.99
2022-10-02T09:05:29.322Z,87.89
2022-10-02T09:06:29.417Z,87.89
2022-10-02T09:07:29.486Z,87.89
2022-10-02T09:08:30.089Z,87.95
2022-10-02T09:09:29.645Z,87.95
2022-10-02T09:10:29.724Z,87.95
2022-10-02T09:11:29.816Z,87.95
2022-10-02T09:12:29.887Z,87.95
2022-10-02T09:13:29.936Z,88.05
2022-10-02T09:14:30.092Z,87.74
2022-10-02T09:15:30.088Z,87.54
2022-10-02T09:16:30.257Z,87.54
2022-10-02T09:17:30.241Z,87.54
2022-10-02T09:18:30.323Z,87.65
2022-10-02T09:19:30.504Z,87.54
2022-10-02T09:20:30.466Z,87.34
2022-10-02T09:21:30.518Z,87.54
2022-10-02T09:22:30.600Z,87.54
2022-10-02T09:23:30.666Z,87.65
2022-10-02T09:24:30.772Z,87.60
2022-10-02T09:25:30.809Z,87.51
2022-10-02T09:26:30.890Z,87.30
2022-10-02T09:27:30.947Z,87.30
2022-10-02T09:28:31.096Z,87.40
2022-10-02T09:29:31.107Z,87.30
2022-10-02T09:30:31.177Z,87.10
2022-10-02T09:31:31.320Z,86.69
2022-10-02T09:32:31.338Z,86.39
2022-10-02T09:33:31.419Z,85.88
2022-10-02T09:34:31.515Z,85.68
2022-10-02T09:35:31.565Z,86.08
2022-10-02T09:36:31.654Z,86.19
2022-10-02T09:37:31.705Z,86.15
2022-10-02T09:38:33.697Z,86.05
2022-10-02T09:39:31.969Z,85.24
2022-10-02T09:40:31.924Z,85.13
2022-10-02T09:41:32.010Z,85.03
2022-10-02T09:42:32.107Z,84.93
2022-10-02T09:43:32.159Z,84.83
2022-10-02T09:44:32.281Z,84.39
2022-10-02T09:45:32.374Z,84.08
2022-10-02T09:46:32.427Z,83.98
2022-10-02T09:47:32.508Z,83.78
2022-10-02T09:48:32.581Z,83.94
2022-10-02T09:49:32.715Z,83.23
2022-10-02T09:50:32.753Z,83.33
2022-10-02T09:51:32.840Z,82.62
2022-10-02T09:52:32.911Z,82.69
2022-10-02T09:53:32.981Z,82.69
2022-10-02T09:54:33.074Z,82.69
2022-10-02T09:55:33.116Z,82.39
2022-10-02T09:56:33.517Z,81.98
2022-10-02T09:57:33.260Z,82.08
2022-10-02T09:58:33.332Z,81.68
2022-10-02T09:59:33.437Z,81.88
2022-10-02T10:00:33.513Z,81.98
2022-10-02T10:01:33.611Z,81.48
2022-10-02T10:02:33.701Z,81.37
2022-10-02T10:03:33.736Z,81.68
2022-10-02T10:04:54.092Z,82.28
2022-10-02T10:05:33.878Z,81.98
2022-10-02T10:06:34.300Z,82.18
2022-10-02T10:07:34.046Z,82.22
2022-10-02T10:08:34.130Z,82.42
2022-10-02T10:09:34.214Z,82.02
2022-10-02T10:10:34.306Z,82.02
2022-10-02T10:11:34.741Z,82.42
2022-10-02T10:12:34.439Z,82.73
2022-10-02T10:13:34.506Z,82.83
2022-10-02T10:14:34.671Z,83.23
2022-10-02T10:15:34.638Z,83.44
2022-10-02T10:16:34.762Z,83.03
2022-10-02T10:17:34.781Z,82.83
2022-10-02T10:18:34.860Z,82.32
2022-10-02T10:19:34.942Z,81.92
2022-10-02T10:20:35.017Z,82.22
2022-10-02T10:21:35.462Z,82.32
2022-10-02T10:22:35.167Z,82.62
2022-10-02T10:23:35.238Z,82.42
2022-10-02T10:24:35.329Z,82.73
2022-10-02T10:25:35.373Z,83.23
2022-10-02T10:26:35.464Z,83.23
2022-10-02T10:27:35.548Z,82.99
2022-10-02T10:28:35.637Z,82.69
2022-10-02T10:29:35.760Z,82.28
2022-10-02T10:30:35.791Z,82.35
2022-10-02T10:31:36.298Z,82.14
2022-10-02T10:32:35.944Z,82.24
2022-10-02T10:33:36.027Z,81.94
2022-10-02T10:34:36.118Z,81.90
2022-10-02T10:35:36.172Z,81.70
2022-10-02T10:36:36.263Z,81.40
2022-10-02T10:37:36.334Z,81.20
2022-10-02T10:38:36.420Z,81.30
2022-10-02T10:39:36.568Z,82.01
2022-10-02T10:40:36.597Z,81.70
2022-10-02T10:41:36.920Z,81.80
2022-10-02T10:42:56.112Z,81.90
2022-10-02T10:43:36.853Z,81.44
2022-10-02T10:44:36.947Z,81.64
2022-10-02T10:45:37.049Z,81.74
2022-10-02T10:46:37.075Z,81.90
2022-10-02T10:47:37.128Z,82.21
2022-10-02T10:48:37.219Z,81.70
2022-10-02T10:49:37.311Z,81.50
2022-10-02T10:50:37.380Z,81.44
2022-10-02T10:51:37.853Z,81.44
2022-10-02T10:52:37.521Z,81.74
2022-10-02T10:53:37.610Z,81.44
2022-10-02T10:54:37.711Z,80.93
2022-10-02T10:55:37.763Z,81.44
2022-10-02T10:56:37.853Z,81.34
2022-10-02T10:57:37.903Z,81.44
2022-10-02T10:58:37.995Z,80.87
2022-10-02T10:59:38.178Z,80.87
2022-10-02T11:00:38.149Z,81.88
2022-10-02T11:01:38.553Z,82.18
2022-10-02T11:02:38.331Z,81.98
2022-10-02T11:03:38.396Z,81.82
2022-10-02T11:04:38.526Z,81.51
2022-10-02T11:05:38.538Z,81.82
2022-10-02T11:06:41.792Z,81.71
2022-10-02T11:07:38.701Z,82.22
2022-10-02T11:08:38.780Z,82.32
2022-10-02T11:09:38.898Z,82.93
2022-10-02T11:10:38.966Z,82.83
2022-10-02T11:11:39.693Z,82.62
2022-10-02T11:12:39.149Z,83.03
2022-10-02T11:13:39.185Z,82.99
2022-10-02T11:14:39.317Z,82.93
2022-10-02T11:15:39.331Z,82.53
2022-10-02T11:16:39.524Z,82.22
2022-10-02T11:17:39.463Z,82.32
2022-10-02T11:18:39.543Z,81.82
2022-10-02T11:19:39.624Z,82.22
2022-10-02T11:20:39.677Z,81.92
2022-10-02T11:21:40.089Z,82.08
2022-10-02T11:22:39.854Z,82.18
2022-10-02T11:23:39.948Z,82.08
2022-10-02T11:24:40.059Z,81.68
2022-10-02T11:25:40.097Z,81.17
2022-10-02T11:26:40.188Z,80.97
2022-10-02T11:27:40.280Z,81.37
2022-10-02T11:28:40.359Z,81.07
2022-10-02T11:29:40.455Z,81.37
2022-10-02T11:30:41.819Z,81.17
2022-10-02T11:31:41.183Z,81.37
2022-10-02T11:32:40.681Z,81.78
2022-10-02T11:33:40.764Z,81.98
2022-10-02T11:34:40.831Z,82.12
2022-10-02T11:35:40.904Z,82.42
2022-10-02T11:36:40.995Z,82.53
2022-10-02T11:37:41.077Z,82.93
2022-10-02T11:38:41.130Z,82.62
2022-10-02T11:39:41.345Z,82.32
2022-10-02T11:40:41.273Z,82.22
2022-10-02T11:41:41.353Z,82.62
2022-10-02T11:42:41.406Z,82.22
2022-10-02T11:43:44.067Z,81.92
2022-10-02T11:44:41.570Z,82.32
2022-10-02T11:45:41.749Z,82.02
2022-10-02T11:46:41.746Z,82.12
2022-10-02T11:47:41.819Z,82.08
2022-10-02T11:48:41.904Z,81.48
2022-10-02T11:49:42.014Z,81.48
2022-10-02T11:50:42.038Z,81.57
2022-10-02T11:51:42.116Z,81.37
2022-10-02T11:52:47.355Z,80.93
2022-10-02T11:53:42.302Z,81.03
2022-10-02T11:54:42.392Z,81.03
2022-10-02T11:55:42.470Z,81.23
2022-10-02T11:56:42.563Z,80.43
2022-10-02T11:57:42.652Z,80.73
2022-10-02T11:58:42.746Z,81.13
2022-10-02T11:59:44.904Z,81.44
2022-10-02T12:00:42.884Z,81.54
2022-10-02T12:01:42.965Z,81.84
2022-10-02T12:02:43.210Z,81.94
2022-10-02T12:03:43.126Z,82.04
2022-10-02T12:04:43.175Z,81.88
2022-10-02T12:05:43.281Z,81.57
2022-10-02T12:06:45.452Z,81.98
2022-10-02T12:07:43.419Z,82.08
2022-10-02T12:08:43.507Z,82.08
2022-10-02T12:09:43.597Z,82.08
2022-10-02T12:10:43.711Z,82.18
2022-10-02T12:11:43.770Z,82.49
2022-10-02T12:12:43.821Z,82.62
2022-10-02T12:13:43.903Z,82.83
2022-10-02T12:14:43.959Z,83.03
2022-10-02T12:15:44.082Z,83.23
2022-10-02T12:16:44.136Z,83.33
2022-10-02T12:17:44.220Z,83.33
2022-10-02T12:18:44.312Z,83.58
2022-10-02T12:19:44.402Z,83.98
2022-10-02T12:20:44.492Z,84.39
2022-10-02T12:21:44.563Z,84.28
2022-10-02T12:22:44.617Z,84.25
2022-10-02T12:23:44.700Z,84.04
2022-10-02T12:24:44.754Z,84.04
2022-10-02T12:25:44.874Z,84.11
2022-10-02T12:26:44.914Z,83.70
2022-10-02T12:27:44.963Z,83.09
2022-10-02T12:28:45.059Z,83.50
2022-10-02T12:29:45.144Z,82.85
2022-10-02T12:30:45.263Z,83.15
2022-10-02T12:31:45.390Z,82.65
2022-10-02T12:32:45.500Z,82.45
2022-10-02T12:33:45.496Z,82.10
2022-10-02T12:34:45.604Z,81.90
2022-10-02T12:35:45.714Z,81.30
2022-10-02T12:36:45.787Z,81.10
2022-10-02T12:37:45.875Z,80.76
2022-10-02T12:38:45.946Z,80.45
2022-10-02T12:39:46.026Z,80.35
2022-10-02T12:40:46.152Z,80.05
2022-10-02T12:41:46.199Z,80.01
2022-10-02T12:42:46.272Z,79.71
2022-10-02T12:43:46.363Z,79.50
2022-10-02T12:44:46.454Z,78.90
2022-10-02T12:45:46.607Z,79.00
2022-10-02T12:46:46.634Z,79.06
2022-10-02T12:47:46.707Z,78.26
2022-10-02T12:48:46.819Z,78.36
2022-10-02T12:49:46.904Z,78.66
2022-10-02T12:50:47.028Z,78.36
2022-10-02T12:51:47.069Z,77.86
2022-10-02T12:52:47.147Z,78.06
2022-10-02T12:53:47.234Z,78.46
2022-10-02T12:54:47.308Z,78.56